createdAt,value
2022-08-03T00:00:18.657Z,17.83
2022-08-03T00:00:51.110Z,7.88
2022-08-03T00:01:23.420Z,13.10
2022-08-03T00:01:55.768Z,8.32
2022-08-03T00:02:28.313Z,6.88
2022-08-03T00:03:00.658Z,13.68
2022-08-03T00:03:33.427Z,18.35
2022-08-03T00:04:06.269Z,34.17
2022-08-03T00:04:38.784Z,11.73
2022-08-03T00:05:11.153Z,10.60
2022-08-03T00:06:03.826Z,8.55
2022-08-03T00:06:37.250Z,31.20
2022-08-03T00:07:10.124Z,19.85
2022-08-03T00:07:42.885Z,16.52
2022-08-03T00:08:16.748Z,19.42
2022-08-03T00:08:52.221Z,24.33
2022-08-03T00:09:24.546Z,28.48
2022-08-03T00:09:57.322Z,7.78
2022-08-03T00:10:30.365Z,7.40
2022-08-03T00:11:02.700Z,17.75
2022-08-03T00:11:35.119Z,25.55
2022-08-03T00:12:07.628Z,16.00
2022-08-03T00:12:39.947Z,32.38
2022-08-03T00:13:13.432Z,23.00
2022-08-03T00:13:45.870Z,23.20
2022-08-03T00:14:18.266Z,15.85
2022-08-03T00:14:50.557Z,15.35
2022-08-03T00:15:22.919Z,27.80
2022-08-03T00:15:55.772Z,23.33
2022-08-03T00:16:28.216Z,10.95
2022-08-03T00:17:00.524Z,32.15
2022-08-03T00:17:53.733Z,10.60
2022-08-03T00:18:25.326Z,8.50
2022-08-03T00:18:57.644Z,21.35
2022-08-03T00:19:29.933Z,14.68
2022-08-03T00:20:02.375Z,13.05
2022-08-03T00:20:34.970Z,18.08
2022-08-03T00:21:07.361Z,9.60
2022-08-03T00:21:39.764Z,19.67
2022-08-03T00:22:12.131Z,18.00
2022-08-03T00:22:44.487Z,17.67
2022-08-03T00:23:17.180Z,37.97
2022-08-03T00:23:52.219Z,13.85
2022-08-03T00:24:25.058Z,21.83
2022-08-03T00:24:57.554Z,45.08
2022-08-03T00:25:30.400Z,11.50
2022-08-03T00:26:02.862Z,40.92
2022-08-03T00:26:35.284Z,8.68
2022-08-03T00:27:07.626Z,39.17
2022-08-03T00:27:39.973Z,8.73
2022-08-03T00:28:12.523Z,38.80
2022-08-03T00:28:45.837Z,22.15
2022-08-03T00:29:18.197Z,20.33
2022-08-03T00:29:59.729Z,49.42
2022-08-03T00:30:33.362Z,11.50
2022-08-03T00:31:05.876Z,19.05
2022-08-03T00:31:49.001Z,14.10
2022-08-03T00:32:24.893Z,62.72
2022-08-03T00:32:57.261Z,31.08
2022-08-03T00:33:58.306Z,13.38
2022-08-03T00:34:34.548Z,26.30
2022-08-03T00:35:35.149Z,16.17
2022-08-03T00:36:10.189Z,21.17
2022-08-03T00:36:42.545Z,31.13
2022-08-03T00:37:14.846Z,67.40
2022-08-03T00:37:48.875Z,74.72
2022-08-03T00:38:21.287Z,16.23
2022-08-03T00:38:53.634Z,61.60
2022-08-03T00:39:26.228Z,26.17
2022-08-03T00:39:59.841Z,55.47
2022-08-03T00:40:33.089Z,43.40
2022-08-03T00:41:05.577Z,52.22
2022-08-03T00:41:37.868Z,22.25
2022-08-03T00:42:10.178Z,64.88
2022-08-03T00:42:52.022Z,9.95
2022-08-03T00:43:27.899Z,34.75
2022-08-03T00:44:00.594Z,18.73
2022-08-03T00:44:39.163Z,49.60
2022-08-03T00:45:11.538Z,51.83
2022-08-03T00:45:44.484Z,67.32
2022-08-03T00:46:21.327Z,65.25
2022-08-03T00:46:54.157Z,59.17
2022-08-03T00:47:26.459Z,62.22
2022-08-03T00:47:59.508Z,44.63
2022-08-03T00:48:33.760Z,56.80
2022-08-03T00:49:06.578Z,22.38
2022-08-03T00:49:42.081Z,61.72
2022-08-03T00:50:15.248Z,8.63
2022-08-03T00:50:48.317Z,46.92
2022-08-03T00:51:24.900Z,61.90
2022-08-03T00:51:57.321Z,88.15
2022-08-03T00:52:29.706Z,75.70
2022-08-03T00:53:03.490Z,32.45
2022-08-03T00:53:36.417Z,56.88
2022-08-03T00:54:08.942Z,54.63
2022-08-03T00:54:41.405Z,79.65
2022-08-03T00:55:14.021Z,103.97
2022-08-03T00:55:46.489Z,59.88
2022-08-03T00:56:19.114Z,89.53
2022-08-03T00:56:59.796Z,103.78
2022-08-03T00:57:33.135Z,95.30
2022-08-03T00:58:08.726Z,81.20
2022-08-03T00:58:41.184Z,109.03
2022-08-03T00:59:15.184Z,107.10
2022-08-03T00:59:47.629Z,115.97
2022-08-03T01:00:22.738Z,106.32
2022-08-03T01:00:55.379Z,116.50
2022-08-03T01:01:30.648Z,124.90
2022-08-03T01:02:05.069Z,118.80
2022-08-03T01:02:37.964Z,136.88
2022-08-03T01:03:12.535Z,122.93
2022-08-03T01:03:45.044Z,124.45
2022-08-03T01:04:17.820Z,106.90
2022-08-03T01:04:50.293Z,130.70
2022-08-03T01:05:22.761Z,95.82
2022-08-03T01:05:58.613Z,117.20
2022-08-03T01:06:36.524Z,115.90
2022-08-03T01:07:20.906Z,119.97
2022-08-03T01:07:56.051Z,114.15
2022-08-03T01:08:47.883Z,123.75
2022-08-03T01:09:23.612Z,123.05
2022-08-03T01:09:55.950Z,119.70
2022-08-03T01:10:31.665Z,119.47
2022-08-03T01:11:12.846Z,117.10
2022-08-03T01:12:01.079Z,112.53
2022-08-03T01:12:39.996Z,83.03
2022-08-03T01:13:59.873Z,43.28
2022-08-03T01:14:37.299Z,125.35
2022-08-03T01:15:18.231Z,118.85
2022-08-03T01:16:09.288Z,120.50
2022-08-03T01:16:44.491Z,119.65
2022-08-03T01:17:23.535Z,77.05
2022-08-03T01:18:14.485Z,117.82
2022-08-03T01:18:55.429Z,117.15
2022-08-03T01:19:48.939Z,112.75
2022-08-03T01:20:22.356Z,111.07
2022-08-03T01:20:56.615Z,116.55
2022-08-03T01:21:36.303Z,102.20
2022-08-03T01:22:35.090Z,104.93
2022-08-03T01:23:29.061Z,113.97
2022-08-03T01:24:05.025Z,118.60
2022-08-03T01:25:21.318Z,111.32
2022-08-03T01:26:20.683Z,111.30
2022-08-03T01:26:58.979Z,122.72
2022-08-03T01:27:37.556Z,117.30
2022-08-03T01:28:20.855Z,125.32
2022-08-03T01:29:05.531Z,124.20
2022-08-03T01:29:49.940Z,119.53
2022-08-03T01:30:24.513Z,112.95
2022-08-03T01:31:04.227Z,108.47
2022-08-03T01:32:58.207Z,118.78
2022-08-03T01:32:59.184Z,119.60
2022-08-03T01:33:36.436Z,126.30
2022-08-03T01:34:14.658Z,125.00
2022-08-03T01:34:53.248Z,130.35
2022-08-03T01:35:48.861Z,112.28
2022-08-03T01:36:23.192Z,123.10
2022-08-03T01:36:56.890Z,122.20
2022-08-03T01:37:33.182Z,109.95
2022-08-03T01:38:10.229Z,46.95
2022-08-03T01:38:45.016Z,91.38
2022-08-03T01:39:21.567Z,121.20
2022-08-03T01:39:56.284Z,113.40
2022-08-03T01:40:28.940Z,115.85
2022-08-03T01:41:06.073Z,111.88
2022-08-03T01:41:45.095Z,102.60
2022-08-03T01:42:18.708Z,33.78
2022-08-03T01:42:51.977Z,100.60
2022-08-03T01:44:26.609Z,100.50
2022-08-03T01:44:30.210Z,106.20
2022-08-03T01:45:04.878Z,116.05
2022-08-03T01:45:37.664Z,102.90
2022-08-03T01:46:10.637Z,120.75
2022-08-03T01:46:47.537Z,114.65
2022-08-03T01:47:22.681Z,129.75
2022-08-03T01:47:55.880Z,128.63
2022-08-03T01:48:28.747Z,113.78
2022-08-03T01:49:01.459Z,105.35
2022-08-03T01:49:44.940Z,110.88
2022-08-03T01:50:19.450Z,126.50
2022-08-03T01:50:52.457Z,115.75
2022-08-03T01:51:25.027Z,124.55
2022-08-03T01:52:19.170Z,116.80
2022-08-03T01:52:52.226Z,122.47
2022-08-03T01:53:24.977Z,109.50
2022-08-03T01:53:59.008Z,93.20
2022-08-03T01:54:32.901Z,54.72
2022-08-03T01:55:06.135Z,79.90
2022-08-03T01:55:38.626Z,108.00
2022-08-03T01:56:12.041Z,96.57
2022-08-03T01:56:44.930Z,25.20
2022-08-03T01:57:17.884Z,42.25
2022-08-03T01:58:04.753Z,107.55
2022-08-03T01:58:40.192Z,123.10
2022-08-03T01:59:14.902Z,123.47
2022-08-03T01:59:49.048Z,130.75
2022-08-03T02:00:21.392Z,119.40
2022-08-03T02:00:58.290Z,111.18
2022-08-03T02:02:28.554Z,132.40
2022-08-03T02:02:33.623Z,143.70
2022-08-03T02:03:07.489Z,142.32
2022-08-03T02:04:00.889Z,135.73
2022-08-03T02:04:34.181Z,142.75
2022-08-03T02:05:10.675Z,146.52
2022-08-03T02:05:43.983Z,138.40
2022-08-03T02:06:59.813Z,144.55
2022-08-03T02:07:10.642Z,157.07
2022-08-03T02:07:43.988Z,142.43
2022-08-03T02:08:18.414Z,146.73
2022-08-03T02:08:51.472Z,151.88
2022-08-03T02:09:24.077Z,157.88
2022-08-03T02:09:57.413Z,129.23
2022-08-03T02:10:35.107Z,116.80
2022-08-03T02:11:08.179Z,139.52
2022-08-03T02:11:41.354Z,146.60
2022-08-03T02:12:15.276Z,145.00
2022-08-03T02:12:51.221Z,139.13
2022-08-03T02:13:24.677Z,132.75
2022-08-03T02:13:58.796Z,140.82
2022-08-03T02:14:31.515Z,131.63
2022-08-03T02:15:04.117Z,124.32
2022-08-03T02:15:37.618Z,134.50
2022-08-03T02:16:10.859Z,121.47
2022-08-03T02:16:45.701Z,126.43
2022-08-03T02:17:19.112Z,131.38
2022-08-03T02:18:11.805Z,98.65
2022-08-03T02:18:44.505Z,128.55
2022-08-03T02:19:20.714Z,127.55
2022-08-03T02:19:53.924Z,111.30
2022-08-03T02:20:27.724Z,108.13
2022-08-03T02:21:05.381Z,127.38
2022-08-03T02:21:56.426Z,134.30
2022-08-03T02:22:33.943Z,135.80
2022-08-03T02:23:07.503Z,130.68
2022-08-03T02:23:40.583Z,129.65
2022-08-03T02:24:12.956Z,136.65
2022-08-03T02:24:45.452Z,125.90
2022-08-03T02:25:23.772Z,128.98
2022-08-03T02:26:01.816Z,123.22
2022-08-03T02:26:36.139Z,128.68
2022-08-03T02:27:12.546Z,92.18
2022-08-03T02:27:59.246Z,68.03
2022-08-03T02:28:38.704Z,123.32
2022-08-03T02:29:17.896Z,124.53
2022-08-03T02:29:53.836Z,122.53
2022-08-03T02:30:31.135Z,120.43
2022-08-03T02:31:05.901Z,111.35
2022-08-03T02:31:38.968Z,110.25
2022-08-03T02:32:13.386Z,107.45
2022-08-03T02:32:51.944Z,105.63
2022-08-03T02:33:30.385Z,106.85
2022-08-03T02:34:06.728Z,100.97
2022-08-03T02:34:40.759Z,102.20
2022-08-03T02:35:14.103Z,107.10
2022-08-03T02:35:47.361Z,97.20
2022-08-03T02:36:22.266Z,96.50
2022-08-03T02:36:55.777Z,99.97
2022-08-03T02:37:31.131Z,100.72
2022-08-03T02:38:04.837Z,99.97
2022-08-03T02:38:39.175Z,96.90
2022-08-03T02:39:13.590Z,89.80
2022-08-03T02:39:46.941Z,94.20
2022-08-03T02:40:20.462Z,75.75
2022-08-03T02:40:55.732Z,97.25
2022-08-03T02:41:33.214Z,96.47
2022-08-03T02:42:08.930Z,83.05
2022-08-03T02:42:42.708Z,36.28
2022-08-03T02:43:17.139Z,88.85
2022-08-03T02:44:06.600Z,101.00
2022-08-03T02:44:40.769Z,116.57
2022-08-03T02:45:14.280Z,116.20
2022-08-03T02:45:48.324Z,110.68
2022-08-03T02:46:21.094Z,110.18
2022-08-03T02:46:56.181Z,56.00
2022-08-03T02:47:53.787Z,122.72
2022-08-03T02:48:25.190Z,117.80
2022-08-03T02:48:57.787Z,122.43
2022-08-03T02:49:49.530Z,114.63
2022-08-03T02:50:23.625Z,127.55
2022-08-03T02:50:58.251Z,113.35
2022-08-03T02:51:33.714Z,107.32
2022-08-03T02:52:12.585Z,104.75
2022-08-03T02:52:48.291Z,108.28
2022-08-03T02:53:21.558Z,119.57
2022-08-03T02:53:55.243Z,105.47
2022-08-03T02:54:28.065Z,109.05
2022-08-03T02:55:03.271Z,75.05
2022-08-03T02:55:36.107Z,122.20
2022-08-03T02:56:15.977Z,140.80
2022-08-03T02:56:48.735Z,125.28
2022-08-03T02:57:21.654Z,137.25
2022-08-03T02:57:54.488Z,119.43
2022-08-03T02:58:27.395Z,124.45
2022-08-03T02:59:00.483Z,128.38
2022-08-03T02:59:32.906Z,129.38
2022-08-03T03:00:05.848Z,117.75
2022-08-03T03:00:38.692Z,126.72
2022-08-03T03:01:11.900Z,127.45
2022-08-03T03:01:45.858Z,99.30
2022-08-03T03:02:19.007Z,113.57
2022-08-03T03:02:52.186Z,128.90
2022-08-03T03:03:25.625Z,118.05
2022-08-03T03:04:00.345Z,129.95
2022-08-03T03:04:35.078Z,143.60
2022-08-03T03:05:54.450Z,124.78
2022-08-03T03:06:05.716Z,130.27
2022-08-03T03:06:38.943Z,128.98
2022-08-03T03:07:15.614Z,120.72
2022-08-03T03:07:51.990Z,116.55
2022-08-03T03:08:28.207Z,126.07
2022-08-03T03:09:01.678Z,126.22
2022-08-03T03:09:41.685Z,102.50
2022-08-03T03:10:15.721Z,127.00
2022-08-03T03:10:48.657Z,120.50
2022-08-03T03:11:26.288Z,116.75
2022-08-03T03:11:58.892Z,118.80
2022-08-03T03:12:31.992Z,113.28
2022-08-03T03:13:04.613Z,116.43
2022-08-03T03:13:37.457Z,114.07
2022-08-03T03:14:11.491Z,129.23
2022-08-03T03:14:43.835Z,125.38
2022-08-03T03:15:16.657Z,129.45
2022-08-03T03:15:49.262Z,129.68
2022-08-03T03:16:22.175Z,140.15
2022-08-03T03:16:56.650Z,155.10
2022-08-03T03:17:31.025Z,141.85
2022-08-03T03:18:04.220Z,141.98
2022-08-03T03:18:36.952Z,137.85
2022-08-03T03:19:11.607Z,132.05
2022-08-03T03:19:45.679Z,134.48
2022-08-03T03:20:29.121Z,121.53
2022-08-03T03:21:04.581Z,119.30
2022-08-03T03:21:37.706Z,120.97
2022-08-03T03:22:10.882Z,121.22
2022-08-03T03:22:45.198Z,108.93
2022-08-03T03:23:17.910Z,111.90
2022-08-03T03:23:50.741Z,74.85
2022-08-03T03:24:23.333Z,108.55
2022-08-03T03:24:56.178Z,88.03
2022-08-03T03:25:29.691Z,79.97
2022-08-03T03:26:02.517Z,15.00
2022-08-03T03:26:37.361Z,66.45
2022-08-03T03:27:16.589Z,98.57
2022-08-03T03:27:50.908Z,90.32
2022-08-03T03:28:24.322Z,89.93
2022-08-03T03:28:57.110Z,69.78
2022-08-03T03:29:29.959Z,60.13
2022-08-03T03:30:11.230Z,94.13
2022-08-03T03:30:43.771Z,83.53
2022-08-03T03:31:16.173Z,58.60
2022-08-03T03:31:48.600Z,20.60
2022-08-03T03:32:20.966Z,86.57
2022-08-03T03:32:53.983Z,76.50
2022-08-03T03:33:28.349Z,66.18
2022-08-03T03:34:01.323Z,32.80
2022-08-03T03:34:33.958Z,21.80
2022-08-03T03:35:07.059Z,31.13
2022-08-03T03:35:41.547Z,44.60
2022-08-03T03:36:15.066Z,45.17
2022-08-03T03:36:47.490Z,25.77
2022-08-03T03:37:19.859Z,15.05
2022-08-03T03:37:52.323Z,11.35
2022-08-03T03:38:24.685Z,25.35
2022-08-03T03:38:57.445Z,9.65
2022-08-03T03:39:29.800Z,10.40
2022-08-03T03:40:02.299Z,9.40
2022-08-03T03:40:41.056Z,11.70
2022-08-03T03:41:13.443Z,20.33
2022-08-03T03:41:46.122Z,41.45
2022-08-03T03:42:18.687Z,33.80
2022-08-03T03:42:51.151Z,14.82
2022-08-03T03:43:23.842Z,53.97
2022-08-03T03:43:56.373Z,38.92
2022-08-03T03:44:29.411Z,48.45
2022-08-03T03:45:05.356Z,27.38
2022-08-03T03:45:38.285Z,48.50
2022-08-03T03:46:12.956Z,41.50
2022-08-03T03:46:45.691Z,34.63
2022-08-03T03:47:18.384Z,62.53
2022-08-03T03:48:05.487Z,60.58
2022-08-03T03:48:39.165Z,59.60
2022-08-03T03:49:13.479Z,10.40
2022-08-03T03:49:46.335Z,52.03
2022-08-03T03:50:20.936Z,68.53
2022-08-03T03:50:53.488Z,62.53
2022-08-03T03:51:25.856Z,33.97
2022-08-03T03:51:58.432Z,52.70
2022-08-03T03:52:31.824Z,57.60
2022-08-03T03:53:04.281Z,47.03
2022-08-03T03:53:36.697Z,56.30
2022-08-03T03:54:09.419Z,47.35
2022-08-03T03:54:42.622Z,63.20
2022-08-03T03:55:18.417Z,38.85
2022-08-03T03:56:01.939Z,14.88
2022-08-03T03:56:35.432Z,67.20
2022-08-03T03:57:07.810Z,14.70
2022-08-03T03:57:41.879Z,66.43
2022-08-03T03:58:14.596Z,52.05
2022-08-03T03:58:46.975Z,11.15
2022-08-03T03:59:19.430Z,51.03
2022-08-03T03:59:52.238Z,68.57
2022-08-03T04:00:24.748Z,71.93
2022-08-03T04:00:57.161Z,78.78
2022-08-03T04:01:29.693Z,72.03
2022-08-03T04:02:02.447Z,87.20
2022-08-03T04:02:34.881Z,96.90
2022-08-03T04:03:07.632Z,81.28
2022-08-03T04:03:40.647Z,96.22
2022-08-03T04:04:31.696Z,103.40
2022-08-03T04:05:27.245Z,100.53
2022-08-03T04:06:17.880Z,113.80
2022-08-03T04:07:08.807Z,120.88
2022-08-03T04:08:07.315Z,125.30
2022-08-03T04:08:58.776Z,129.35
2022-08-03T04:09:50.223Z,115.95
2022-08-03T04:10:41.802Z,125.90
2022-08-03T04:11:20.769Z,128.93
2022-08-03T04:12:02.511Z,116.88
2022-08-03T04:12:36.777Z,118.55
2022-08-03T04:13:10.944Z,131.93
2022-08-03T04:13:47.606Z,110.55
2022-08-03T04:14:22.979Z,129.88
2022-08-03T04:14:57.199Z,116.80
2022-08-03T04:15:31.995Z,119.82
2022-08-03T04:16:05.322Z,125.25
2022-08-03T04:16:43.975Z,129.32
2022-08-03T04:17:17.242Z,125.63
2022-08-03T04:17:51.475Z,114.30
2022-08-03T04:18:24.780Z,127.03
2022-08-03T04:19:02.278Z,128.57
2022-08-03T04:19:37.938Z,128.48
2022-08-03T04:20:11.117Z,109.63
2022-08-03T04:20:45.832Z,135.00
2022-08-03T04:21:20.768Z,123.03
2022-08-03T04:21:57.043Z,120.65
2022-08-03T04:22:32.449Z,126.35
2022-08-03T04:23:05.508Z,123.07
2022-08-03T04:23:49.391Z,133.95
2022-08-03T04:24:22.659Z,118.07
2022-08-03T04:25:01.271Z,136.70
2022-08-03T04:25:35.393Z,134.35
2022-08-03T04:26:10.284Z,121.57
2022-08-03T04:26:43.439Z,119.22
2022-08-03T04:27:18.489Z,137.82
2022-08-03T04:28:07.789Z,126.82
2022-08-03T04:28:50.578Z,141.32
2022-08-03T04:29:24.216Z,129.48
2022-08-03T04:29:57.486Z,90.07
2022-08-03T04:30:31.625Z,130.95
2022-08-03T04:31:04.794Z,140.25
2022-08-03T04:31:38.805Z,132.57
2022-08-03T04:32:11.508Z,139.05
2022-08-03T04:32:46.223Z,151.77
2022-08-03T04:33:23.617Z,147.85
2022-08-03T04:34:02.313Z,141.20
2022-08-03T04:34:35.026Z,136.73
2022-08-03T04:35:07.997Z,139.23
2022-08-03T04:36:01.258Z,138.13
2022-08-03T04:36:37.737Z,134.93
2022-08-03T04:37:12.167Z,124.63
2022-08-03T04:37:49.130Z,123.13
2022-08-03T04:38:23.473Z,133.63
2022-08-03T04:39:04.139Z,145.52
2022-08-03T04:39:37.326Z,133.75
2022-08-03T04:40:13.706Z,146.40
2022-08-03T04:40:46.637Z,140.93
2022-08-03T04:41:20.022Z,139.05
2022-08-03T04:42:02.258Z,145.43
2022-08-03T04:42:41.292Z,139.15
2022-08-03T04:43:15.076Z,124.28
2022-08-03T04:43:48.704Z,136.43
2022-08-03T04:44:22.422Z,130.63
2022-08-03T04:45:03.062Z,136.25
2022-08-03T04:45:35.985Z,139.82
2022-08-03T04:46:08.925Z,137.98
2022-08-03T04:46:42.400Z,93.47
2022-08-03T04:47:23.049Z,133.93
2022-08-03T04:47:55.751Z,134.13
2022-08-03T04:48:28.674Z,140.75
2022-08-03T04:49:01.915Z,98.07
2022-08-03T04:49:36.349Z,98.75
2022-08-03T04:50:12.490Z,124.80
2022-08-03T04:50:46.834Z,133.52
2022-08-03T04:51:19.318Z,111.80
2022-08-03T04:51:52.150Z,124.35
2022-08-03T04:52:24.918Z,129.00
2022-08-03T04:52:57.314Z,121.97
2022-08-03T04:53:29.662Z,121.75
2022-08-03T04:54:02.774Z,117.95
2022-08-03T04:54:50.413Z,127.70
2022-08-03T04:55:30.391Z,123.63
2022-08-03T04:56:06.172Z,101.93
2022-08-03T04:56:42.050Z,117.30
2022-08-03T04:57:21.981Z,113.80
2022-08-03T04:57:55.956Z,120.38
2022-08-03T04:58:28.666Z,115.38
2022-08-03T04:59:01.024Z,107.80
2022-08-03T04:59:33.798Z,111.03
2022-08-03T05:00:12.132Z,109.95
2022-08-03T05:00:45.813Z,115.05
2022-08-03T05:01:18.921Z,106.47
2022-08-03T05:01:51.367Z,116.38
2022-08-03T05:02:23.977Z,116.65
2022-08-03T05:02:56.681Z,111.32
2022-08-03T05:03:29.167Z,113.10
2022-08-03T05:04:01.601Z,17.73
2022-08-03T05:04:34.138Z,102.07
2022-08-03T05:05:06.795Z,69.57
2022-08-03T05:05:49.828Z,46.67
2022-08-03T05:06:25.161Z,60.70
2022-08-03T05:06:57.594Z,113.40
2022-08-03T05:07:35.596Z,116.20
2022-08-03T05:08:11.106Z,103.72
2022-08-03T05:08:47.070Z,104.60
2022-08-03T05:09:50.783Z,100.57
2022-08-03T05:10:16.100Z,120.85
2022-08-03T05:10:50.107Z,105.40
2022-08-03T05:11:22.521Z,112.07
2022-08-03T05:11:55.789Z,101.88
2022-08-03T05:12:32.314Z,91.00
2022-08-03T05:13:05.451Z,52.38
2022-08-03T05:13:38.016Z,60.53
2022-08-03T05:14:10.400Z,93.32
2022-08-03T05:14:42.773Z,35.88
2022-08-03T05:15:16.247Z,50.80
2022-08-03T05:15:49.464Z,102.72
2022-08-03T05:16:21.877Z,45.15
2022-08-03T05:16:54.225Z,72.72
2022-08-03T05:17:26.881Z,87.97
2022-08-03T05:17:59.325Z,83.20
2022-08-03T05:18:32.567Z,72.43
2022-08-03T05:19:05.006Z,39.80
2022-08-03T05:19:37.397Z,59.47
2022-08-03T05:20:10.456Z,92.57
2022-08-03T05:20:42.798Z,84.18
2022-08-03T05:21:16.934Z,75.80
2022-08-03T05:21:52.448Z,80.75
2022-08-03T05:22:25.410Z,78.78
2022-08-03T05:22:58.165Z,81.97
2022-08-03T05:23:30.883Z,45.65
2022-08-03T05:24:03.273Z,55.47
2022-08-03T05:24:36.091Z,72.47
2022-08-03T05:25:08.967Z,80.63
2022-08-03T05:25:46.099Z,91.47
2022-08-03T05:26:22.270Z,101.43
2022-08-03T05:26:54.658Z,71.13
2022-08-03T05:27:27.224Z,28.15
2022-08-03T05:27:59.689Z,67.38
2022-08-03T05:28:32.026Z,80.88
2022-08-03T05:29:04.413Z,92.10
2022-08-03T05:29:36.880Z,51.05
2022-08-03T05:30:29.722Z,11.60
2022-08-03T05:31:02.532Z,29.70
2022-08-03T05:31:34.971Z,89.53
2022-08-03T05:32:08.448Z,73.45
2022-08-03T05:32:40.920Z,77.05
2022-08-03T05:33:13.589Z,98.85
2022-08-03T05:33:45.973Z,57.03
2022-08-03T05:34:18.334Z,70.75
2022-08-03T05:34:50.799Z,81.78
2022-08-03T05:36:00.766Z,68.90
2022-08-03T05:36:18.160Z,92.68
2022-08-03T05:36:50.600Z,84.15
2022-08-03T05:37:22.976Z,90.47
2022-08-03T05:37:55.347Z,89.25
2022-08-03T05:38:34.130Z,82.55
2022-08-03T05:39:40.221Z,97.13
2022-08-03T05:40:12.860Z,108.68
2022-08-03T05:40:46.989Z,105.35
2022-08-03T05:41:36.912Z,114.63
2022-08-03T05:42:10.842Z,91.47
2022-08-03T05:42:43.174Z,62.97
2022-08-03T05:43:16.967Z,54.47
2022-08-03T05:43:49.297Z,12.68
2022-08-03T05:44:22.388Z,97.95
2022-08-03T05:44:54.748Z,80.53
2022-08-03T05:45:28.491Z,77.18
2022-08-03T05:46:11.487Z,90.55
2022-08-03T05:46:45.108Z,104.53
2022-08-03T05:47:17.452Z,89.60
2022-08-03T05:47:51.424Z,49.33
2022-08-03T05:48:23.719Z,82.55
2022-08-03T05:48:56.231Z,91.50
2022-08-03T05:49:28.650Z,108.45
2022-08-03T05:50:01.026Z,71.45
2022-08-03T05:50:33.849Z,74.53
2022-08-03T05:51:07.923Z,87.10
2022-08-03T05:51:40.241Z,89.20
2022-08-03T05:52:22.586Z,102.15
2022-08-03T05:52:57.811Z,100.60
2022-08-03T05:53:33.066Z,13.25
2022-08-03T05:54:05.539Z,80.65
2022-08-03T05:54:56.452Z,95.10
2022-08-03T05:55:29.976Z,16.40
2022-08-03T05:56:03.580Z,57.75
2022-08-03T05:56:48.021Z,86.97
2022-08-03T05:57:20.425Z,91.65
2022-08-03T05:57:55.193Z,76.88
2022-08-03T05:58:29.857Z,93.07
2022-08-03T05:59:22.435Z,85.70
2022-08-03T05:59:58.200Z,113.07
2022-08-03T06:00:31.352Z,101.18
2022-08-03T06:01:03.770Z,14.13
2022-08-03T06:01:37.394Z,90.03
2022-08-03T06:02:09.830Z,11.40
2022-08-03T06:02:42.435Z,48.97
2022-08-03T06:03:14.808Z,96.00
2022-08-03T06:03:47.203Z,96.07
2022-08-03T06:04:20.068Z,70.22
2022-08-03T06:04:52.375Z,79.28
2022-08-03T06:05:27.432Z,86.60
2022-08-03T06:06:00.351Z,12.27
2022-08-03T06:06:33.090Z,39.83
2022-08-03T06:07:05.540Z,64.00
2022-08-03T06:07:38.219Z,87.25
2022-08-03T06:08:10.539Z,73.80
2022-08-03T06:08:49.027Z,10.98
2022-08-03T06:09:21.394Z,18.27
2022-08-03T06:10:34.109Z,40.95
2022-08-03T06:10:46.231Z,97.68
2022-08-03T06:11:18.688Z,94.60
2022-08-03T06:11:51.062Z,91.90
2022-08-03T06:12:23.560Z,98.25
2022-08-03T06:12:56.149Z,58.92
2022-08-03T06:13:28.500Z,42.13
2022-08-03T06:14:00.841Z,90.70
2022-08-03T06:14:33.387Z,84.07
2022-08-03T06:15:05.924Z,98.47
2022-08-03T06:15:40.348Z,53.72
2022-08-03T06:16:12.664Z,88.60
2022-08-03T06:16:45.067Z,83.85
2022-08-03T06:17:17.587Z,82.20
2022-08-03T06:17:51.068Z,88.50
2022-08-03T06:18:24.834Z,97.10
2022-08-03T06:18:57.153Z,111.95
2022-08-03T06:19:29.644Z,121.22
2022-08-03T06:20:01.972Z,109.60
2022-08-03T06:20:34.498Z,101.93
2022-08-03T06:21:14.124Z,108.60
2022-08-03T06:21:48.219Z,119.63
2022-08-03T06:22:20.916Z,100.03
2022-08-03T06:23:00.493Z,56.03
2022-08-03T06:23:53.390Z,26.30
2022-08-03T06:24:26.568Z,108.70
2022-08-03T06:25:03.683Z,86.30
2022-08-03T06:25:37.431Z,110.00
2022-08-03T06:26:09.981Z,123.60
2022-08-03T06:26:44.524Z,105.95
2022-08-03T06:27:16.931Z,103.00
2022-08-03T06:27:49.325Z,57.55
2022-08-03T06:28:53.247Z,72.75
2022-08-03T06:29:14.193Z,97.40
2022-08-03T06:29:46.550Z,105.65
2022-08-03T06:30:21.203Z,108.40
2022-08-03T06:30:53.882Z,84.18
2022-08-03T06:31:32.689Z,46.22
2022-08-03T06:32:06.311Z,76.57
2022-08-03T06:32:39.419Z,85.20
2022-08-03T06:33:11.802Z,64.30
2022-08-03T06:34:29.075Z,99.05
2022-08-03T06:34:36.718Z,78.88
2022-08-03T06:35:10.003Z,101.72
2022-08-03T06:35:42.542Z,111.43
2022-08-03T06:36:17.660Z,123.40
2022-08-03T06:36:52.261Z,64.55
2022-08-03T06:37:25.285Z,105.05
2022-08-03T06:37:57.801Z,110.45
2022-08-03T06:38:30.244Z,85.95
2022-08-03T06:39:02.603Z,101.38
2022-08-03T06:39:35.196Z,118.00
2022-08-03T06:40:07.861Z,110.22
2022-08-03T06:40:40.341Z,94.68
2022-08-03T06:41:12.890Z,115.68
2022-08-03T06:41:45.646Z,103.85
2022-08-03T06:42:18.390Z,93.40
2022-08-03T06:42:55.856Z,96.40
2022-08-03T06:43:28.384Z,108.63
2022-08-03T06:44:08.394Z,94.43
2022-08-03T06:44:42.679Z,113.78
2022-08-03T06:45:15.041Z,114.05
2022-08-03T06:45:47.672Z,112.80
2022-08-03T06:46:20.249Z,103.82
2022-08-03T06:46:53.236Z,90.93
2022-08-03T06:47:25.555Z,98.63
2022-08-03T06:48:15.867Z,102.68
2022-08-03T06:48:48.723Z,86.65
2022-08-03T06:49:21.150Z,105.25
2022-08-03T06:50:12.822Z,99.38
2022-08-03T06:50:46.135Z,111.07
2022-08-03T06:51:18.630Z,100.47
2022-08-03T06:52:05.424Z,95.47
2022-08-03T06:52:39.498Z,94.13
2022-08-03T06:53:18.203Z,108.18
2022-08-03T06:53:53.643Z,87.10
2022-08-03T06:54:26.137Z,103.68
2022-08-03T06:54:58.777Z,85.85
2022-08-03T06:55:31.563Z,107.95
2022-08-03T06:56:07.460Z,107.57
2022-08-03T06:56:39.915Z,111.70
2022-08-03T06:57:13.455Z,84.50
2022-08-03T06:57:45.878Z,27.95
2022-08-03T06:58:18.412Z,80.38
2022-08-03T06:58:50.741Z,78.20
2022-08-03T07:00:10.234Z,90.05
2022-08-03T07:00:15.719Z,99.25
2022-08-03T07:00:48.292Z,102.95
2022-08-03T07:01:20.744Z,80.30
2022-08-03T07:01:53.252Z,30.58
2022-08-03T07:02:28.248Z,58.80
2022-08-03T07:03:01.470Z,29.25
2022-08-03T07:03:33.813Z,59.72
2022-08-03T07:04:06.380Z,42.95
2022-08-03T07:04:39.775Z,18.20
2022-08-03T07:05:12.341Z,21.15
2022-08-03T07:05:47.193Z,22.73
2022-08-03T07:06:19.681Z,62.63
2022-08-03T07:06:52.626Z,63.83
2022-08-03T07:07:25.155Z,62.28
2022-08-03T07:08:02.232Z,83.22
2022-08-03T07:08:34.703Z,42.63
2022-08-03T07:09:07.084Z,32.83
2022-08-03T07:09:39.557Z,44.55
2022-08-03T07:10:14.212Z,49.03
2022-08-03T07:10:46.669Z,11.82
2022-08-03T07:11:19.073Z,79.75
2022-08-03T07:11:51.401Z,28.80
2022-08-03T07:12:23.807Z,72.50
2022-08-03T07:12:56.980Z,65.78
2022-08-03T07:13:29.679Z,41.50
2022-08-03T07:14:02.072Z,45.50
2022-08-03T07:14:34.395Z,86.93
2022-08-03T07:15:07.064Z,31.33
2022-08-03T07:15:55.304Z,81.55
2022-08-03T07:16:28.361Z,63.55
2022-08-03T07:17:00.680Z,95.30
2022-08-03T07:17:34.877Z,46.67
2022-08-03T07:18:07.383Z,97.45
2022-08-03T07:18:40.123Z,100.82
2022-08-03T07:19:12.512Z,80.82
2022-08-03T07:19:45.096Z,99.72
2022-08-03T07:20:18.452Z,73.88
2022-08-03T07:20:51.071Z,77.03
2022-08-03T07:21:23.497Z,100.32
2022-08-03T07:21:56.677Z,106.80
2022-08-03T07:22:35.821Z,104.07
2022-08-03T07:23:08.150Z,97.22
2022-08-03T07:23:40.570Z,90.05
2022-08-03T07:24:13.220Z,97.30
2022-08-03T07:24:45.926Z,88.00
2022-08-03T07:25:18.447Z,68.57
2022-08-03T07:25:51.191Z,56.63
2022-08-03T07:26:23.707Z,18.92
2022-08-03T07:26:56.096Z,95.18
2022-08-03T07:27:29.541Z,32.65
2022-08-03T07:28:01.943Z,96.25
2022-08-03T07:28:34.496Z,90.75
2022-08-03T07:29:07.880Z,97.55
2022-08-03T07:29:47.569Z,90.93
2022-08-03T07:30:20.535Z,91.97
2022-08-03T07:30:52.951Z,103.25
2022-08-03T07:31:25.280Z,104.95
2022-08-03T07:31:58.037Z,71.07